sensor_id;sensor_type;location;lat;lon;timestamp;temperature;humidity
10492;DHT22;5293;51.464;-2.566;2023-05-29T00:02:24;13.80;99.90
10492;DHT22;5293;51.464;-2.566;2023-05-29T00:04:50;13.70;99.90
10492;DHT22;5293;51.464;-2.566;2023-05-29T00:07:16;13.60;99.90
10492;DHT22;5293;51.464;-2.566;2023-05-29T00:09:42;13.60;99.90
10492;DHT22;5293;51.464;-2.566;2023-05-29T00:12:07;13.50;99.90
10492;DHT22;5293;51.464;-2.566;2023-05-29T00:14:33;13.50;99.90
10492;DHT22;5293;51.464;-2.566;2023-05-29T00:16:58;13.50;99.90
10492;DHT22;5293;51.464;-2.566;2023-05-29T00:19:24;13.50;99.90
10492;DHT22;5293;51.464;-2.566;2023-05-29T00:21:51;13.40;99.90
10492;DHT22;5293;51.464;-2.566;2023-05-29T00:24:16;13.60;99.90
10492;DHT22;5293;51.464;-2.566;2023-05-29T00:26:42;13.60;99.90
10492;DHT22;5293;51.464;-2.566;2023-05-29T00:29:08;13.70;99.90
10492;DHT22;5293;51.464;-2.566;2023-05-29T00:31:34;13.60;99.90
10492;DHT22;5293;51.464;-2.566;2023-05-29T00:34:01;13.50;99.90
10492;DHT22;5293;51.464;-2.566;2023-05-29T00:36:27;13.40;99.90
10492;DHT22;5293;51.464;-2.566;2023-05-29T00:38:54;13.40;99.90
10492;DHT22;5293;51.464;-2.566;2023-05-29T00:41:19;13.30;99.90
10492;DHT22;5293;51.464;-2.566;2023-05-29T00:43:45;13.30;99.90
10492;DHT22;5293;51.464;-2.566;2023-05-29T00:46:13;13.30;99.90
10492;DHT22;5293;51.464;-2.566;2023-05-29T00:48:39;13.20;99.90
10492;DHT22;5293;51.464;-2.566;2023-05-29T00:51:06;13.20;99.90
10492;DHT22;5293;51.464;-2.566;2023-05-29T00:53:32;13.00;99.90
10492;DHT22;5293;51.464;-2.566;2023-05-29T00:55:58;12.90;99.90
10492;DHT22;5293;51.464;-2.566;2023-05-29T00:58:25;12.80;99.90
10492;DHT22;5293;51.464;-2.566;2023-05-29T01:00:51;12.80;99.90
10492;DHT22;5293;51.464;-2.566;2023-05-29T01:03:18;12.80;99.90
10492;DHT22;5293;51.464;-2.566;2023-05-29T01:05:44;12.70;99.90
10492;DHT22;5293;51.464;-2.566;2023-05-29T01:08:12;12.70;99.90
10492;DHT22;5293;51.464;-2.566;2023-05-29T01:10:39;12.80;99.90
10492;DHT22;5293;51.464;-2.566;2023-05-29T01:13:27;12.70;99.90
10492;DHT22;5293;51.464;-2.566;2023-05-29T01:16:01;12.60;99.90
10492;DHT22;5293;51.464;-2.566;2023-05-29T01:24:13;12.60;99.90
10492;DHT22;5293;51.464;-2.566;2023-05-29T01:26:51;12.40;99.90
10492;DHT22;5293;51.464;-2.566;2023-05-29T01:29:29;12.40;99.90
10492;DHT22;5293;51.464;-2.566;2023-05-29T01:31:58;12.40;99.90
10492;DHT22;5293;51.464;-2.566;2023-05-29T01:34:24;12.30;99.90
10492;DHT22;5293;51.464;-2.566;2023-05-29T01:36:50;12.30;99.90
10492;DHT22;5293;51.464;-2.566;2023-05-29T01:39:16;12.30;99.90
10492;DHT22;5293;51.464;-2.566;2023-05-29T01:41:44;12.20;99.90
10492;DHT22;5293;51.464;-2.566;2023-05-29T01:44:10;12.20;99.90
10492;DHT22;5293;51.464;-2.566;2023-05-29T01:46:41;12.20;99.90
10492;DHT22;5293;51.464;-2.566;2023-05-29T01:49:08;12.20;99.90
10492;DHT22;5293;51.464;-2.566;2023-05-29T01:51:34;12.10;99.90
10492;DHT22;5293;51.464;-2.566;2023-05-29T01:54:01;12.10;99.90
10492;DHT22;5293;51.464;-2.566;2023-05-29T01:56:27;12.10;99.90
10492;DHT22;5293;51.464;-2.566;2023-05-29T01:58:55;12.20;99.90
10492;DHT22;5293;51.464;-2.566;2023-05-29T02:01:22;12.10;99.90
10492;DHT22;5293;51.464;-2.566;2023-05-29T02:03:48;12.10;99.90
10492;DHT22;5293;51.464;-2.566;2023-05-29T02:06:13;12.10;99.90
10492;DHT22;5293;51.464;-2.566;2023-05-29T02:08:40;12.10;99.90
10492;DHT22;5293;51.464;-2.566;2023-05-29T02:11:05;12.00;99.90
10492;DHT22;5293;51.464;-2.566;2023-05-29T02:13:31;11.90;99.90
10492;DHT22;5293;51.464;-2.566;2023-05-29T02:15:57;11.80;99.90
10492;DHT22;5293;51.464;-2.566;2023-05-29T02:18:23;11.70;99.90
10492;DHT22;5293;51.464;-2.566;2023-05-29T02:20:49;11.80;99.90
10492;DHT22;5293;51.464;-2.566;2023-05-29T02:23:15;11.90;99.90
10492;DHT22;5293;51.464;-2.566;2023-05-29T02:25:41;12.00;99.90
10492;DHT22;5293;51.464;-2.566;2023-05-29T02:28:07;11.90;99.90
10492;DHT22;5293;51.464;-2.566;2023-05-29T02:30:33;11.90;99.90
10492;DHT22;5293;51.464;-2.566;2023-05-29T02:32:59;11.80;99.90
10492;DHT22;5293;51.464;-2.566;2023-05-29T02:35:24;11.80;99.90
10492;DHT22;5293;51.464;-2.566;2023-05-29T02:37:50;11.70;99.90
10492;DHT22;5293;51.464;-2.566;2023-05-29T02:40:17;11.80;99.90
10492;DHT22;5293;51.464;-2.566;2023-05-29T02:42:42;11.70;99.90
10492;DHT22;5293;51.464;-2.566;2023-05-29T02:45:08;11.70;99.90
10492;DHT22;5293;51.464;-2.566;2023-05-29T02:47:35;11.70;99.90
10492;DHT22;5293;51.464;-2.566;2023-05-29T02:50:01;11.70;99.90
10492;DHT22;5293;51.464;-2.566;2023-05-29T02:52:26;11.60;99.90
10492;DHT22;5293;51.464;-2.566;2023-05-29T02:54:52;11.60;99.90
10492;DHT22;5293;51.464;-2.566;2023-05-29T02:57:20;11.70;99.90
10492;DHT22;5293;51.464;-2.566;2023-05-29T02:59:45;11.70;99.90
10492;DHT22;5293;51.464;-2.566;2023-05-29T03:02:11;11.50;99.90
10492;DHT22;5293;51.464;-2.566;2023-05-29T03:04:37;11.30;99.90
10492;DHT22;5293;51.464;-2.566;2023-05-29T03:07:03;11.30;99.90
10492;DHT22;5293;51.464;-2.566;2023-05-29T03:09:28;11.40;99.90
10492;DHT22;5293;51.464;-2.566;2023-05-29T03:11:54;11.40;99.90
10492;DHT22;5293;51.464;-2.566;2023-05-29T03:14:20;11.40;99.90
10492;DHT22;5293;51.464;-2.566;2023-05-29T03:16:47;11.40;99.90
10492;DHT22;5293;51.464;-2.566;2023-05-29T03:19:13;11.30;99.90
10492;DHT22;5293;51.464;-2.566;2023-05-29T03:21:38;11.10;99.90
10492;DHT22;5293;51.464;-2.566;2023-05-29T03:24:04;11.10;99.90
10492;DHT22;5293;51.464;-2.566;2023-05-29T03:26:30;11.10;99.90
10492;DHT22;5293;51.464;-2.566;2023-05-29T03:28:56;11.20;99.90
10492;DHT22;5293;51.464;-2.566;2023-05-29T03:31:22;11.30;99.90
10492;DHT22;5293;51.464;-2.566;2023-05-29T03:33:48;11.30;99.90
10492;DHT22;5293;51.464;-2.566;2023-05-29T03:36:14;11.20;99.90
10492;DHT22;5293;51.464;-2.566;2023-05-29T03:38:42;11.10;99.90
10492;DHT22;5293;51.464;-2.566;2023-05-29T03:41:08;11.00;99.90
10492;DHT22;5293;51.464;-2.566;2023-05-29T03:43:34;11.00;99.90
10492;DHT22;5293;51.464;-2.566;2023-05-29T03:46:00;11.10;99.90
10492;DHT22;5293;51.464;-2.566;2023-05-29T03:48:25;11.10;99.90
10492;DHT22;5293;51.464;-2.566;2023-05-29T03:50:51;11.00;99.90
10492;DHT22;5293;51.464;-2.566;2023-05-29T03:53:16;10.90;99.90
10492;DHT22;5293;51.464;-2.566;2023-05-29T03:55:42;10.90;99.90
10492;DHT22;5293;51.464;-2.566;2023-05-29T03:58:08;10.90;99.90
10492;DHT22;5293;51.464;-2.566;2023-05-29T04:00:33;10.90;99.90
10492;DHT22;5293;51.464;-2.566;2023-05-29T04:02:59;10.90;99.90
10492;DHT22;5293;51.464;-2.566;2023-05-29T04:05:25;10.80;99.90
10492;DHT22;5293;51.464;-2.566;2023-05-29T04:07:52;10.80;99.90
10492;DHT22;5293;51.464;-2.566;2023-05-29T04:10:17;10.90;99.90
10492;DHT22;5293;51.464;-2.566;2023-05-29T04:12:43;10.90;99.90
10492;DHT22;5293;51.464;-2.566;2023-05-29T04:15:09;10.90;99.90
10492;DHT22;5293;51.464;-2.566;2023-05-29T04:17:34;10.90;99.90
10492;DHT22;5293;51.464;-2.566;2023-05-29T04:20:00;10.70;99.90
10492;DHT22;5293;51.464;-2.566;2023-05-29T04:22:33;10.60;99.90
10492;DHT22;5293;51.464;-2.566;2023-05-29T04:24:58;10.70;99.90
10492;DHT22;5293;51.464;-2.566;2023-05-29T04:27:24;10.80;99.90
10492;DHT22;5293;51.464;-2.566;2023-05-29T04:29:49;10.60;99.90
10492;DHT22;5293;51.464;-2.566;2023-05-29T04:32:15;10.70;99.90
10492;DHT22;5293;51.464;-2.566;2023-05-29T04:34:41;10.60;99.90
10492;DHT22;5293;51.464;-2.566;2023-05-29T04:37:09;10.60;99.90
10492;DHT22;5293;51.464;-2.566;2023-05-29T04:39:35;10.60;99.90
10492;DHT22;5293;51.464;-2.566;2023-05-29T04:42:01;10.60;99.90
10492;DHT22;5293;51.464;-2.566;2023-05-29T04:44:27;10.60;99.90
10492;DHT22;5293;51.464;-2.566;2023-05-29T04:46:55;10.60;99.90
10492;DHT22;5293;51.464;-2.566;2023-05-29T04:49:22;10.60;99.90
10492;DHT22;5293;51.464;-2.566;2023-05-29T04:51:48;10.50;99.90
10492;DHT22;5293;51.464;-2.566;2023-05-29T04:54:13;10.70;99.90
10492;DHT22;5293;51.464;-2.566;2023-05-29T04:56:39;10.80;99.90
10492;DHT22;5293;51.464;-2.566;2023-05-29T04:59:08;10.60;99.90
10492;DHT22;5293;51.464;-2.566;2023-05-29T05:01:34;10.70;99.90
10492;DHT22;5293;51.464;-2.566;2023-05-29T05:04:00;10.70;99.90
10492;DHT22;5293;51.464;-2.566;2023-05-29T05:06:26;10.80;99.90
10492;DHT22;5293;51.464;-2.566;2023-05-29T05:08:52;10.80;99.90
10492;DHT22;5293;51.464;-2.566;2023-05-29T05:11:19;10.90;99.90
10492;DHT22;5293;51.464;-2.566;2023-05-29T05:13:44;11.00;99.90
10492;DHT22;5293;51.464;-2.566;2023-05-29T05:16:10;11.10;99.90
10492;DHT22;5293;51.464;-2.566;2023-05-29T05:18:36;11.10;99.90
10492;DHT22;5293;51.464;-2.566;2023-05-29T05:21:02;11.10;99.90
10492;DHT22;5293;51.464;-2.566;2023-05-29T05:23:32;11.00;99.90
10492;DHT22;5293;51.464;-2.566;2023-05-29T05:25:57;11.10;99.90
10492;DHT22;5293;51.464;-2.566;2023-05-29T05:28:23;11.30;99.90
10492;DHT22;5293;51.464;-2.566;2023-05-29T05:30:49;11.30;99.90
10492;DHT22;5293;51.464;-2.566;2023-05-29T05:33:15;11.20;99.90
10492;DHT22;5293;51.464;-2.566;2023-05-29T05:35:40;11.20;99.90
10492;DHT22;5293;51.464;-2.566;2023-05-29T05:38:06;11.10;99.90
10492;DHT22;5293;51.464;-2.566;2023-05-29T05:40:32;11.20;99.90
10492;DHT22;5293;51.464;-2.566;2023-05-29T05:42:58;11.20;99.90
10492;DHT22;5293;51.464;-2.566;2023-05-29T05:45:23;11.30;99.90
10492;DHT22;5293;51.464;-2.566;2023-05-29T05:47:49;11.50;99.90
10492;DHT22;5293;51.464;-2.566;2023-05-29T05:50:15;11.60;99.90
10492;DHT22;5293;51.464;-2.566;2023-05-29T05:52:43;11.60;99.90
10492;DHT22;5293;51.464;-2.566;2023-05-29T05:55:11;11.80;99.90
10492;DHT22;5293;51.464;-2.566;2023-05-29T05:57:36;11.70;99.90
10492;DHT22;5293;51.464;-2.566;2023-05-29T06:00:05;11.70;99.90
10492;DHT22;5293;51.464;-2.566;2023-05-29T06:02:38;11.60;99.90
10492;DHT22;5293;51.464;-2.566;2023-05-29T06:05:08;11.50;99.90
10492;DHT22;5293;51.464;-2.566;2023-05-29T06:07:34;11.60;99.90
10492;DHT22;5293;51.464;-2.566;2023-05-29T06:10:01;11.60;99.90
10492;DHT22;5293;51.464;-2.566;2023-05-29T06:12:26;11.70;99.90
10492;DHT22;5293;51.464;-2.566;2023-05-29T06:14:53;11.90;99.90
10492;DHT22;5293;51.464;-2.566;2023-05-29T06:17:18;12.10;99.90
10492;DHT22;5293;51.464;-2.566;2023-05-29T06:19:44;12.20;99.90
10492;DHT22;5293;51.464;-2.566;2023-05-29T06:22:10;12.30;99.90
10492;DHT22;5293;51.464;-2.566;2023-05-29T06:24:35;12.40;99.90
10492;DHT22;5293;51.464;-2.566;2023-05-29T06:27:01;12.30;99.90
10492;DHT22;5293;51.464;-2.566;2023-05-29T06:29:27;12.40;99.90
10492;DHT22;5293;51.464;-2.566;2023-05-29T06:31:52;12.50;99.90
10492;DHT22;5293;51.464;-2.566;2023-05-29T06:34:18;12.60;99.90
10492;DHT22;5293;51.464;-2.566;2023-05-29T06:36:44;12.60;99.90
10492;DHT22;5293;51.464;-2.566;2023-05-29T06:39:09;12.80;99.90
10492;DHT22;5293;51.464;-2.566;2023-05-29T06:41:36;12.80;99.90
10492;DHT22;5293;51.464;-2.566;2023-05-29T06:44:01;13.00;99.90
10492;DHT22;5293;51.464;-2.566;2023-05-29T06:46:27;13.00;99.90
10492;DHT22;5293;51.464;-2.566;2023-05-29T06:48:53;13.00;99.90
10492;DHT22;5293;51.464;-2.566;2023-05-29T06:51:18;13.20;99.90
10492;DHT22;5293;51.464;-2.566;2023-05-29T06:53:44;13.20;99.90
10492;DHT22;5293;51.464;-2.566;2023-05-29T06:56:10;12.90;99.90
10492;DHT22;5293;51.464;-2.566;2023-05-29T06:58:36;12.80;99.90
10492;DHT22;5293;51.464;-2.566;2023-05-29T07:01:01;12.90;99.90
10492;DHT22;5293;51.464;-2.566;2023-05-29T07:03:28;13.00;99.90
10492;DHT22;5293;51.464;-2.566;2023-05-29T07:05:54;13.10;99.90
10492;DHT22;5293;51.464;-2.566;2023-05-29T07:08:20;13.20;99.90
10492;DHT22;5293;51.464;-2.566;2023-05-29T07:10:46;13.40;99.90
10492;DHT22;5293;51.464;-2.566;2023-05-29T07:13:15;13.40;99.90
10492;DHT22;5293;51.464;-2.566;2023-05-29T07:15:41;13.50;99.90
10492;DHT22;5293;51.464;-2.566;2023-05-29T07:18:06;13.60;99.90
10492;DHT22;5293;51.464;-2.566;2023-05-29T07:20:32;13.60;99.90
10492;DHT22;5293;51.464;-2.566;2023-05-29T07:22:58;13.60;99.90
10492;DHT22;5293;51.464;-2.566;2023-05-29T07:25:23;13.60;99.90
10492;DHT22;5293;51.464;-2.566;2023-05-29T07:27:49;13.60;99.90
10492;DHT22;5293;51.464;-2.566;2023-05-29T07:30:15;13.50;99.90
10492;DHT22;5293;51.464;-2.566;2023-05-29T07:32:40;13.60;99.90
10492;DHT22;5293;51.464;-2.566;2023-05-29T07:35:06;13.70;99.90
10492;DHT22;5293;51.464;-2.566;2023-05-29T07:37:34;13.80;99.90
10492;DHT22;5293;51.464;-2.566;2023-05-29T07:40:00;13.90;99.90
10492;DHT22;5293;51.464;-2.566;2023-05-29T07:42:26;14.00;99.90
10492;DHT22;5293;51.464;-2.566;2023-05-29T07:44:51;13.90;99.90
10492;DHT22;5293;51.464;-2.566;2023-05-29T07:47:17;13.80;99.90
10492;DHT22;5293;51.464;-2.566;2023-05-29T07:49:43;14.10;99.90
10492;DHT22;5293;51.464;-2.566;2023-05-29T07:52:08;14.30;99.90
10492;DHT22;5293;51.464;-2.566;2023-05-29T07:54:34;14.40;99.90
10492;DHT22;5293;51.464;-2.566;2023-05-29T07:57:00;14.20;99.90
10492;DHT22;5293;51.464;-2.566;2023-05-29T07:59:28;14.30;99.90
10492;DHT22;5293;51.464;-2.566;2023-05-29T08:01:54;14.20;99.90
10492;DHT22;5293;51.464;-2.566;2023-05-29T08:04:24;14.20;99.90
10492;DHT22;5293;51.464;-2.566;2023-05-29T08:06:50;14.20;99.90
10492;DHT22;5293;51.464;-2.566;2023-05-29T08:09:16;14.50;99.90
10492;DHT22;5293;51.464;-2.566;2023-05-29T08:11:42;14.40;99.90
10492;DHT22;5293;51.464;-2.566;2023-05-29T08:14:10;14.10;99.90
10492;DHT22;5293;51.464;-2.566;2023-05-29T08:16:36;14.00;99.90
10492;DHT22;5293;51.464;-2.566;2023-05-29T08:19:02;14.00;99.90
10492;DHT22;5293;51.464;-2.566;2023-05-29T08:21:29;13.90;99.90
10492;DHT22;5293;51.464;-2.566;2023-05-29T08:23:55;14.00;99.90
10492;DHT22;5293;51.464;-2.566;2023-05-29T08:26:21;14.10;99.90
10492;DHT22;5293;51.464;-2.566;2023-05-29T08:28:47;14.00;99.90
10492;DHT22;5293;51.464;-2.566;2023-05-29T08:31:12;13.90;99.90
10492;DHT22;5293;51.464;-2.566;2023-05-29T08:33:38;13.90;99.90
10492;DHT22;5293;51.464;-2.566;2023-05-29T08:36:04;13.90;99.90
10492;DHT22;5293;51.464;-2.566;2023-05-29T08:38:29;14.20;99.90
10492;DHT22;5293;51.464;-2.566;2023-05-29T08:40:56;14.40;99.90
10492;DHT22;5293;51.464;-2.566;2023-05-29T08:43:24;14.70;99.90
10492;DHT22;5293;51.464;-2.566;2023-05-29T08:45:54;14.60;99.90
10492;DHT22;5293;51.464;-2.566;2023-05-29T08:48:24;14.40;99.90
10492;DHT22;5293;51.464;-2.566;2023-05-29T08:50:53;14.50;99.90
10492;DHT22;5293;51.464;-2.566;2023-05-29T08:53:20;14.50;99.90
10492;DHT22;5293;51.464;-2.566;2023-05-29T08:55:47;14.50;99.90
10492;DHT22;5293;51.464;-2.566;2023-05-29T08:58:17;14.40;99.90
10492;DHT22;5293;51.464;-2.566;2023-05-29T09:00:45;14.50;99.90
10492;DHT22;5293;51.464;-2.566;2023-05-29T09:03:11;14.70;99.90
10492;DHT22;5293;51.464;-2.566;2023-05-29T09:05:39;15.10;99.90
10492;DHT22;5293;51.464;-2.566;2023-05-29T09:08:06;15.00;99.90
10492;DHT22;5293;51.464;-2.566;2023-05-29T09:10:33;14.90;99.90
10492;DHT22;5293;51.464;-2.566;2023-05-29T09:12:59;14.90;99.90
10492;DHT22;5293;51.464;-2.566;2023-05-29T09:15:25;14.80;99.90
10492;DHT22;5293;51.464;-2.566;2023-05-29T09:17:51;14.70;99.90
10492;DHT22;5293;51.464;-2.566;2023-05-29T09:20:18;14.40;99.90
10492;DHT22;5293;51.464;-2.566;2023-05-29T09:23:08;14.20;99.90
10492;DHT22;5293;51.464;-2.566;2023-05-29T09:25:40;14.30;99.90
10492;DHT22;5293;51.464;-2.566;2023-05-29T09:28:08;14.40;99.90
10492;DHT22;5293;51.464;-2.566;2023-05-29T09:30:44;14.60;99.90
10492;DHT22;5293;51.464;-2.566;2023-05-29T09:33:12;14.60;99.90
10492;DHT22;5293;51.464;-2.566;2023-05-29T09:35:39;14.80;99.90
10492;DHT22;5293;51.464;-2.566;2023-05-29T09:38:06;15.00;99.90
10492;DHT22;5293;51.464;-2.566;2023-05-29T09:40:35;15.30;99.90
10492;DHT22;5293;51.464;-2.566;2023-05-29T09:43:05;15.60;99.90
10492;DHT22;5293;51.464;-2.566;2023-05-29T09:45:37;15.50;99.90
10492;DHT22;5293;51.464;-2.566;2023-05-29T09:48:02;15.50;99.90
10492;DHT22;5293;51.464;-2.566;2023-05-29T09:50:28;15.50;99.90
10492;DHT22;5293;51.464;-2.566;2023-05-29T09:52:56;15.40;99.90
10492;DHT22;5293;51.464;-2.566;2023-05-29T09:55:24;15.30;99.90
10492;DHT22;5293;51.464;-2.566;2023-05-29T09:57:53;15.30;99.90
10492;DHT22;5293;51.464;-2.566;2023-05-29T10:00:20;15.30;99.90
10492;DHT22;5293;51.464;-2.566;2023-05-29T10:02:50;15.40;99.90
10492;DHT22;5293;51.464;-2.566;2023-05-29T10:05:16;15.40;99.90
10492;DHT22;5293;51.464;-2.566;2023-05-29T10:07:46;15.30;99.90
10492;DHT22;5293;51.464;-2.566;2023-05-29T10:10:17;15.50;99.90
10492;DHT22;5293;51.464;-2.566;2023-05-29T10:12:50;15.70;99.90
10492;DHT22;5293;51.464;-2.566;2023-05-29T10:15:17;15.60;99.90
10492;DHT22;5293;51.464;-2.566;2023-05-29T10:17:57;15.70;99.90
10492;DHT22;5293;51.464;-2.566;2023-05-29T10:20:26;15.80;99.90
10492;DHT22;5293;51.464;-2.566;2023-05-29T10:22:56;15.90;99.90
10492;DHT22;5293;51.464;-2.566;2023-05-29T10:25:22;15.70;99.90
10492;DHT22;5293;51.464;-2.566;2023-05-29T10:27:49;15.80;99.90
10492;DHT22;5293;51.464;-2.566;2023-05-29T10:30:27;16.00;99.90
10492;DHT22;5293;51.464;-2.566;2023-05-29T10:35:51;15.70;99.90
10492;DHT22;5293;51.464;-2.566;2023-05-29T10:38:19;16.00;99.90
10492;DHT22;5293;51.464;-2.566;2023-05-29T10:40:46;16.10;99.90
10492;DHT22;5293;51.464;-2.566;2023-05-29T10:43:33;15.90;99.90
10492;DHT22;5293;51.464;-2.566;2023-05-29T10:46:00;15.90;99.90
10492;DHT22;5293;51.464;-2.566;2023-05-29T10:50:55;16.20;99.90
10492;DHT22;5293;51.464;-2.566;2023-05-29T10:53:26;16.30;99.90
10492;DHT22;5293;51.464;-2.566;2023-05-29T10:55:52;16.20;99.90
10492;DHT22;5293;51.464;-2.566;2023-05-29T10:58:22;16.30;99.90
10492;DHT22;5293;51.464;-2.566;2023-05-29T11:00:52;16.30;99.90
10492;DHT22;5293;51.464;-2.566;2023-05-29T11:03:31;16.30;99.90
10492;DHT22;5293;51.464;-2.566;2023-05-29T11:06:01;16.40;99.90
10492;DHT22;5293;51.464;-2.566;2023-05-29T11:08:34;16.20;99.90
10492;DHT22;5293;51.464;-2.566;2023-05-29T11:11:03;16.40;99.90
10492;DHT22;5293;51.464;-2.566;2023-05-29T11:13:35;16.20;99.90
10492;DHT22;5293;51.464;-2.566;2023-05-29T11:18:52;16.10;99.90
10492;DHT22;5293;51.464;-2.566;2023-05-29T11:24:01;16.10;99.90
10492;DHT22;5293;51.464;-2.566;2023-05-29T11:26:32;16.20;99.90
10492;DHT22;5293;51.464;-2.566;2023-05-29T11:29:03;16.10;99.90
10492;DHT22;5293;51.464;-2.566;2023-05-29T11:31:32;16.10;99.90
10492;DHT22;5293;51.464;-2.566;2023-05-29T11:34:01;16.20;99.90
10492;DHT22;5293;51.464;-2.566;2023-05-29T11:36:30;16.30;99.90
10492;DHT22;5293;51.464;-2.566;2023-05-29T11:38:58;16.50;99.90
10492;DHT22;5293;51.464;-2.566;2023-05-29T11:41:24;16.40;99.90
10492;DHT22;5293;51.464;-2.566;2023-05-29T11:44:00;16.40;99.90
10492;DHT22;5293;51.464;-2.566;2023-05-29T11:46:28;16.30;99.90
10492;DHT22;5293;51.464;-2.566;2023-05-29T11:48:56;16.30;99.90
10492;DHT22;5293;51.464;-2.566;2023-05-29T11:51:22;16.50;99.90
10492;DHT22;5293;51.464;-2.566;2023-05-29T11:53:48;16.60;99.90
10492;DHT22;5293;51.464;-2.566;2023-05-29T11:56:14;16.50;99.90
10492;DHT22;5293;51.464;-2.566;2023-05-29T11:58:40;16.40;99.90
10492;DHT22;5293;51.464;-2.566;2023-05-29T12:01:09;16.60;99.90
10492;DHT22;5293;51.464;-2.566;2023-05-29T12:03:42;16.50;99.90
10492;DHT22;5293;51.464;-2.566;2023-05-29T12:06:10;16.40;99.90
10492;DHT22;5293;51.464;-2.566;2023-05-29T12:08:37;16.50;99.90
10492;DHT22;5293;51.464;-2.566;2023-05-29T12:11:03;16.50;99.90
10492;DHT22;5293;51.464;-2.566;2023-05-29T12:13:29;16.60;99.90
10492;DHT22;5293;51.464;-2.566;2023-05-29T12:16:02;16.60;99.90
10492;DHT22;5293;51.464;-2.566;2023-05-29T12:18:29;16.70;99.90
10492;DHT22;5293;51.464;-2.566;2023-05-29T12:21:02;16.70;99.90
10492;DHT22;5293;51.464;-2.566;2023-05-29T12:23:29;16.70;99.90
10492;DHT22;5293;51.464;-2.566;2023-05-29T12:25:56;16.80;99.90
10492;DHT22;5293;51.464;-2.566;2023-05-29T12:28:22;16.80;99.90
10492;DHT22;5293;51.464;-2.566;2023-05-29T12:30:49;16.80;99.90
10492;DHT22;5293;51.464;-2.566;2023-05-29T12:33:33;16.80;99.90
10492;DHT22;5293;51.464;-2.566;2023-05-29T12:36:17;17.00;99.90
10492;DHT22;5293;51.464;-2.566;2023-05-29T12:38:47;16.90;99.90
10492;DHT22;5293;51.464;-2.566;2023-05-29T12:41:29;16.80;99.90
10492;DHT22;5293;51.464;-2.566;2023-05-29T12:43:57;16.90;99.90
10492;DHT22;5293;51.464;-2.566;2023-05-29T12:46:26;16.90;99.90
10492;DHT22;5293;51.464;-2.566;2023-05-29T12:48:55;17.00;99.90
10492;DHT22;5293;51.464;-2.566;2023-05-29T12:51:28;17.00;99.90
10492;DHT22;5293;51.464;-2.566;2023-05-29T12:53:53;17.00;99.90
10492;DHT22;5293;51.464;-2.566;2023-05-29T12:56:22;17.20;99.90
10492;DHT22;5293;51.464;-2.566;2023-05-29T12:58:52;17.10;99.90
10492;DHT22;5293;51.464;-2.566;2023-05-29T13:01:18;17.00;99.90
10492;DHT22;5293;51.464;-2.566;2023-05-29T13:03:43;17.20;99.90
10492;DHT22;5293;51.464;-2.566;2023-05-29T13:06:10;17.30;99.90
10492;DHT22;5293;51.464;-2.566;2023-05-29T13:08:36;17.30;99.90
10492;DHT22;5293;51.464;-2.566;2023-05-29T13:11:02;17.30;99.90
10492;DHT22;5293;51.464;-2.566;2023-05-29T13:13:27;17.40;99.90
10492;DHT22;5293;51.464;-2.566;2023-05-29T13:15:53;17.40;99.90
10492;DHT22;5293;51.464;-2.566;2023-05-29T13:18:19;17.50;99.90
10492;DHT22;5293;51.464;-2.566;2023-05-29T13:20:44;17.40;99.90
10492;DHT22;5293;51.464;-2.566;2023-05-29T13:23:10;17.40;99.90
10492;DHT22;5293;51.464;-2.566;2023-05-29T13:25:36;17.40;99.90
10492;DHT22;5293;51.464;-2.566;2023-05-29T13:28:01;17.40;99.90
10492;DHT22;5293;51.464;-2.566;2023-05-29T13:30:27;17.40;99.90
10492;DHT22;5293;51.464;-2.566;2023-05-29T13:32:53;17.50;99.90
10492;DHT22;5293;51.464;-2.566;2023-05-29T13:35:19;17.40;99.90
10492;DHT22;5293;51.464;-2.566;2023-05-29T13:37:45;17.50;99.90
10492;DHT22;5293;51.464;-2.566;2023-05-29T13:40:11;17.60;99.90
10492;DHT22;5293;51.464;-2.566;2023-05-29T13:42:39;17.70;99.90
10492;DHT22;5293;51.464;-2.566;2023-05-29T13:45:05;17.80;99.90
10492;DHT22;5293;51.464;-2.566;2023-05-29T13:47:32;17.80;99.90
10492;DHT22;5293;51.464;-2.566;2023-05-29T13:49:59;17.80;99.90
10492;DHT22;5293;51.464;-2.566;2023-05-29T13:52:25;17.80;99.90
10492;DHT22;5293;51.464;-2.566;2023-05-29T13:54:51;17.80;99.90
10492;DHT22;5293;51.464;-2.566;2023-05-29T13:57:17;18.00;99.90
10492;DHT22;5293;51.464;-2.566;2023-05-29T13:59:43;18.10;99.90
10492;DHT22;5293;51.464;-2.566;2023-05-29T14:02:08;18.10;99.90
10492;DHT22;5293;51.464;-2.566;2023-05-29T14:04:34;18.00;99.90
10492;DHT22;5293;51.464;-2.566;2023-05-29T14:07:00;18.10;99.90
10492;DHT22;5293;51.464;-2.566;2023-05-29T14:09:26;18.00;99.90
10492;DHT22;5293;51.464;-2.566;2023-05-29T14:11:56;17.90;99.90
10492;DHT22;5293;51.464;-2.566;2023-05-29T14:14:22;18.00;99.90
10492;DHT22;5293;51.464;-2.566;2023-05-29T14:16:48;17.90;99.90
10492;DHT22;5293;51.464;-2.566;2023-05-29T14:19:14;18.00;99.90
10492;DHT22;5293;51.464;-2.566;2023-05-29T14:21:40;18.20;99.90
10492;DHT22;5293;51.464;-2.566;2023-05-29T14:24:06;18.20;99.90
10492;DHT22;5293;51.464;-2.566;2023-05-29T14:26:33;18.40;99.90
10492;DHT22;5293;51.464;-2.566;2023-05-29T14:28:58;18.20;99.90
10492;DHT22;5293;51.464;-2.566;2023-05-29T14:31:24;18.30;99.90
10492;DHT22;5293;51.464;-2.566;2023-05-29T14:33:49;18.20;99.90
10492;DHT22;5293;51.464;-2.566;2023-05-29T14:36:15;18.10;99.90
10492;DHT22;5293;51.464;-2.566;2023-05-29T14:38:41;18.20;99.90
10492;DHT22;5293;51.464;-2.566;2023-05-29T14:41:08;18.30;99.90
10492;DHT22;5293;51.464;-2.566;2023-05-29T14:43:34;18.40;99.90
10492;DHT22;5293;51.464;-2.566;2023-05-29T14:45:59;18.50;99.90
10492;DHT22;5293;51.464;-2.566;2023-05-29T14:48:25;18.50;99.90
10492;DHT22;5293;51.464;-2.566;2023-05-29T14:50:51;18.40;99.90
10492;DHT22;5293;51.464;-2.566;2023-05-29T14:53:17;18.40;99.90
10492;DHT22;5293;51.464;-2.566;2023-05-29T14:55:43;18.40;99.90
10492;DHT22;5293;51.464;-2.566;2023-05-29T14:58:08;18.50;99.90
10492;DHT22;5293;51.464;-2.566;2023-05-29T15:00:34;18.40;99.90
10492;DHT22;5293;51.464;-2.566;2023-05-29T15:03:00;18.50;99.90
10492;DHT22;5293;51.464;-2.566;2023-05-29T15:05:26;18.40;99.90
10492;DHT22;5293;51.464;-2.566;2023-05-29T15:07:52;18.50;99.90
10492;DHT22;5293;51.464;-2.566;2023-05-29T15:10:21;18.50;99.90
10492;DHT22;5293;51.464;-2.566;2023-05-29T15:12:47;18.60;99.90
10492;DHT22;5293;51.464;-2.566;2023-05-29T15:15:12;18.70;99.90
10492;DHT22;5293;51.464;-2.566;2023-05-29T15:17:38;18.80;99.90
10492;DHT22;5293;51.464;-2.566;2023-05-29T15:20:05;18.90;99.90
10492;DHT22;5293;51.464;-2.566;2023-05-29T15:22:31;18.90;99.90
10492;DHT22;5293;51.464;-2.566;2023-05-29T15:24:57;18.90;99.90
10492;DHT22;5293;51.464;-2.566;2023-05-29T15:27:22;19.00;99.90
10492;DHT22;5293;51.464;-2.566;2023-05-29T15:29:52;19.00;99.90
10492;DHT22;5293;51.464;-2.566;2023-05-29T15:32:18;18.80;99.90
10492;DHT22;5293;51.464;-2.566;2023-05-29T15:34:43;18.80;99.90
10492;DHT22;5293;51.464;-2.566;2023-05-29T15:37:09;18.80;99.90
10492;DHT22;5293;51.464;-2.566;2023-05-29T15:39:34;18.80;99.90
10492;DHT22;5293;51.464;-2.566;2023-05-29T15:42:00;18.70;99.90
10492;DHT22;5293;51.464;-2.566;2023-05-29T15:44:26;18.70;99.90
10492;DHT22;5293;51.464;-2.566;2023-05-29T15:46:51;18.70;99.90